METAR v bližini

 

LJLJ - Ljubljana/Brnik, Slovenia
Oddaljenost od postaje: Z 41km
Podatki zajeti: 19/10/2018 08:30
Plitva megla, Megla v okolici, Rahlo oblačno
Plitva megla, Megla v okolici, Rahlo oblačno
 Veter iz smeri spremenljiv
Veter: spremenljiv 2 km/h
Temperatura: 7°C
Rosišče: 7°C
Vlažnost: 100%
Tlak: 1021 hPa
Stanje: Plitva megla, Megla v okolici
Oblačnost: Rahlo oblačno
Vidljivost: 8 km
Podrobnosti o oblakih: Rahlo oblačno 30 m
2018/10/19 06:30 LJLJ 190630Z VRB01KT 8000 3500SE MIFG VCFG FEW001 07/07 Q1021 NOSIG
LJMB - Maribor, Slovenia
Oddaljenost od postaje: SV 63km
Podatki zajeti: 19/10/2018 08:30
Delno oblačno
Delno oblačno
 Veter iz smeri spremenljiv
Veter: spremenljiv 2 km/h
Temperatura: 10°C
Rosišče: 9°C
Vlažnost: 94%
Tlak: 1021 hPa
Oblačnost: Delno oblačno
Vidljivost: 8 km
2018/10/19 06:30 LJMB 190630Z VRB01KT 8000 NSC 10/09 Q1021
 
LJPZ - Portoroz, Slovenia
Oddaljenost od postaje: JZ 130km
Podatki zajeti: 19/10/2018 08:30
Jasno
Jasno
 Veter iz smeri JV
Veter: JV 17 km/h
Temperatura: 13°C
Rosišče: 9°C
Vlažnost: 77%
Tlak: 1017 hPa
Stanje: Jasno
Vidljivost: večja od 10 km
2018/10/19 06:30 LJPZ 190630Z 13009KT CAVOK 13/09 Q1017
LJCE - Cerklje, Slovenia
Oddaljenost od postaje: VJV 49km
Podatki zajeti: 19/10/2018 08:30
Megla, Oblačno
Megla, Oblačno
 Veter iz smeri Z
Veter: Z 4 km/h
Temperatura: 10°C
Rosišče: 9°C
Vlažnost: 94%
Tlak: 1021 hPa
Stanje: Megla
Oblačnost: Oblačno
Vidljivost: 0 km
Podrobnosti o oblakih: Oblačno 30 m
2018/10/19 06:30 LJCE 190630Z 27002KT 0200 FG VV001 10/09 Q1021 RMK RED
 
LDZA - Zagreb/Pleso, Croatia
Oddaljenost od postaje: VJV 96km
Podatki zajeti: 19/10/2018 08:30
Meglica, Delno oblačno
Meglica, Delno oblačno
 Veter iz smeri spremenljiv
Veter: spremenljiv 4 km/h
Temperatura: 10°C
Rosišče: 9°C
Vlažnost: 94%
Tlak: 1020 hPa
Stanje: Meglica
Oblačnost: Delno oblačno
Vidljivost: 2 km
2018/10/19 06:30 LDZA 190630Z VRB02KT 1500 BR NSC 10/09 Q1020 BECMG 3000
LDRI - Rijeka/Omisalj, Croatia
Oddaljenost od postaje: JJZ 109km
Podatki zajeti: 19/10/2018 08:30
Rahlo oblačno
Rahlo oblačno
 Veter iz smeri VSV
Veter: VSV 19 km/h
Temperatura: 19°C
Rosišče: 8°C
Vlažnost: 49%
Tlak: 1018 hPa
Oblačnost: Rahlo oblačno
Vidljivost: 10 km
Podrobnosti o oblakih: Rahlo oblačno 1890 m
2018/10/19 06:30 LDRI 190630Z 06010KT 9999 FEW062 19/08 Q1018
 
LDPL - Pula, Croatia
Oddaljenost od postaje: JJZ 164km
Podatki zajeti: 19/10/2018 08:30
Jasno
Jasno
 Veter iz smeri SV
Veter: SV 11 km/h
Temperatura: 16°C
Rosišče: 8°C
Vlažnost: 59%
Tlak: 1017 hPa
Stanje: Jasno
Vidljivost: večja od 10 km
2018/10/19 06:30 LDPL 190630Z 04006KT CAVOK 16/08 Q1017 NOSIG
LOWK - Klagenfurt(Civ/M, Austria
Oddaljenost od postaje: SZ 76km
Podatki zajeti: 19/10/2018 08:20
Meglica, Oblačno
Meglica, Oblačno
 Veter iz smeri spremenljiv
Veter: spremenljiv 2 km/h
Temperatura: 11°C
Rosišče: 11°C
Vlažnost: 100%
Tlak: 1021 hPa
Stanje: Meglica
Oblačnost: Oblačno
Vidljivost: 3 km
Podrobnosti o oblakih: Rahlo oblačno 30 m
Pretežno oblačno 61 m
Oblačno 152 m
2018/10/19 06:20 LOWK 190620Z VRB01KT 3000 BR FEW001 BKN002 OVC005 11/11 Q1021 TEMPO SCT002 BKN004
 
LOWG - Graz (mil/Civ), Austria
Oddaljenost od postaje: SSV 100km
Podatki zajeti: 19/10/2018 08:20
Partial fog, Delno oblačno
Partial fog, Delno oblačno
 Veter iz smeri VJV
Veter: VJV 6 km/h
Temperatura: 10°C
Rosišče: 10°C
Vlažnost: 100%
Tlak: 1021 hPa
Stanje: Partial Fog
Oblačnost: Delno oblačno
Vidljivost: 1 km
Podrobnosti o oblakih: Rahlo oblačno 91 m
Delno oblačno 1829 m
2018/10/19 06:20 LOWG 190620Z 11003KT 0700 PRFG FEW003 SCT060 10/10 Q1021 BECMG FM0700 1500 BCFG
LOWZ - Zell Am See, Austria
Oddaljenost od postaje: SZ 211km
Podatki zajeti: 31/12/2016 17:00
Ni posodobljen
Jasno
Jasno
 Veter iz smeri spremenljiv
Veter: spremenljiv 4 km/h
Temperatura: -4°C
Rosišče: -7°C
Vlažnost: 80%
Tlak: 1031 hPa
Oblačnost: Jasno
2016/12/31 16:00 LOWZ 311600Z VRB02KT 50KM SKC M04/M07 Q1031
 
LOAN - Wr.neustadt East, Austria
Oddaljenost od postaje: SSV 212km
Podatki zajeti: 19/10/2018 08:00
Meglica, Rahlo oblačno
Meglica, Rahlo oblačno
 Veter iz smeri ZSZ
Veter: ZSZ 6 km/h
Stanje: Meglica
Oblačnost: Rahlo oblačno
Vidljivost: 5 km
Podrobnosti o oblakih: Rahlo oblačno 1524 m
2018/10/19 06:00 LOAN 190600Z 30003KT 5000 BR FEW050SC
LIPQ - Ronchi Legionari, Italy
Oddaljenost od postaje: JZ 35km
Podatki zajeti: 19/10/2018 08:20
Jasno
Jasno
 Veter iz smeri SSZ
Veter: SSZ 7 km/h
Temperatura: 13°C
Rosišče: 10°C
Vlažnost: 82%
Tlak: 1017 hPa
Stanje: Jasno
Vidljivost: večja od 10 km
2018/10/19 06:20 LIPQ 190620Z 33004KT 300V360 CAVOK 13/10 Q1017
 
LIVT - Trieste, Italy
Oddaljenost od postaje: ZJZ 109km
Podatki zajeti: 19/10/2018 07:55
Jasno
Jasno
 Veter iz smeri SV
Veter: SV 19 km/h, Sunek vetra: 44 km/h
Temperatura: 18°C
Rosišče: 10°C
Vlažnost: 60%
Tlak: 1016 hPa
Stanje: Jasno
Vidljivost: večja od 10 km
2018/10/19 05:55 LIVT 190555Z 04010G24KT CAVOK 18/10 Q1016 RMK SKC QUK 3 QUL 2 NE VIS MAR 20 KM VIS MIN 9999
LIVO - Tarvisio, Italy
Oddaljenost od postaje: SSZ 49km
Podatki zajeti: 19/10/2018 07:55
Delno oblačno
Delno oblačno
 Veter iz smeri calm
Veter: Tišina
Temperatura: 8°C
Rosišče: 7°C
Vlažnost: 93%
Tlak: 1020 hPa
Oblačnost: Delno oblačno
Vidljivost: 6 km
Podrobnosti o oblakih: Delno oblačno 762 m
2018/10/19 05:55 LIVO 190555Z 00000KT 6000 SCT025 08/07 Q1020 RMK SCT VIS MIN 6000
 
LIPZ - Venezia/Tessera, Italy
Oddaljenost od postaje: ZJZ 217km
Podatki zajeti: 19/10/2018 08:20
Jasno
Jasno
 Veter iz smeri S
Veter: S 11 km/h
Temperatura: 15°C
Rosišče: 11°C
Vlažnost: 77%
Tlak: 1017 hPa
Stanje: Jasno
Vidljivost: večja od 10 km
2018/10/19 06:20 LIPZ 190620Z 35006KT CAVOK 15/11 Q1017 NOSIG
LHSM - Balaton, Hungary
Oddaljenost od postaje: VSV 177km
Podatki zajeti: 19/10/2018 08:15
Meglica, Delno oblačno
Meglica, Delno oblačno
 Veter iz smeri SZ
Veter: SZ 9 km/h
Temperatura: 11°C
Rosišče: 10°C
Vlažnost: 94%
Tlak: 1020 hPa
Stanje: Meglica
Oblačnost: Delno oblačno
Vidljivost: 3 km
2018/10/19 06:15 LHSM 190615Z 31005KT 3000 BR NSC 11/10 Q1020 NOSIG